Morgenster — PHMY — position and weather

sailwx.info

Track history (hours):
 
Tides and Currents Weather Stations Pressure Air Temp Water Temp Dewpoint Dewpoint Depression Visibility Wind Speed Wind Dir Waves Ship Positions

Morgenster

Last reported at 2015-Jul-30 22:28 UTC. Time now 2015-Jul-31 03:04 UTC.
Position N 57°43' E 010°35'.

Length 38 m; draft 2.4 m.

Type: Sailing vessel. MMSI: 245136000.

Date/timePositionNaut miles runAvg speedWind from/ knotsBaromVisibWave heightAir tempDewpointWater temp
2015-Jul-30 22:28N 57°43' E 010°35'0 0.2
2015-Jul-30 21:34N 57°43' E 010°36'4 4.0
2015-Jul-30 20:34N 57°45' E 010°42'7 7.1
2015-Jul-30 19:34N 57°47' E 010°29'9 8.6
2015-Jul-30 18:34N 57°49' E 010°14'8 7.1
2015-Jul-30 17:25N 57°51' E 009°59'36 3.9
2015-Jul-30 08:05N 57°33' E 008°60'3 5.6
2015-Jul-30 07:32N 57°30' E 008°56'0 0.5
2015-Jul-30 06:33N 57°31' E 008°56'  
2015-Jul-23 14:28N 58°06' E 006°29'8 8.4
2015-Jul-23 13:33N 58°11' E 006°18'7 7.1
2015-Jul-23 12:33N 58°16' E 006°09'6 6.1
2015-Jul-23 11:33N 58°21' E 006°01'3 3.2
2015-Jul-23 10:33N 58°23' E 005°56'4 4.0
2015-Jul-23 09:33N 58°25' E 005°51'1 1.4
2015-Jul-23 08:33N 58°27' E 005°49'2 2.1
2015-Jul-23 07:31N 58°29' E 005°47'2 0.1
2015-Jul-22 12:16N 58°30' E 005°46'19 6.7
2015-Jul-22 09:26N 58°47' E 005°28'6 7.3
2015-Jul-22 08:33N 58°53' E 005°31'3 0.6
2015-Jul-22 02:33N 58°56' E 005°35'6 5.5
2015-Jul-22 01:30N 58°51' E 005°30'5 5.1
2015-Jul-22 00:33N 58°53' E 005°21'8 7.6
2015-Jul-21 23:34N 58°60' E 005°15'7 7.1
2015-Jul-21 22:33N 59°06' E 005°10'7 6.8
2015-Jul-21 21:33N 59°13' E 005°07'7 6.6
2015-Jul-21 20:33N 59°19' E 005°06'6 6.2
2015-Jul-21 19:33N 59°25' E 005°10'8 7.1
2015-Jul-21 18:29N 59°33' E 005°12'7 7.0
2015-Jul-21 17:33N 59°38' E 005°19'7 7.4
2015-Jul-21 16:33N 59°44' E 005°29'5 5.0
2015-Jul-21 15:33N 59°49' E 005°33'  
Track history (hours):
 
Tides and Currents Weather Stations Pressure Air Temp Water Temp Dewpoint Dewpoint Depression Visibility Wind Speed Wind Dir Waves Ship Positions

Morgenster

Last reported at 2015-Jul-30 22:28 UTC. Time now 2015-Jul-31 03:04 UTC.
Position N 57°43' E 010°35'.

Length 38 m; draft 2.4 m.

Type: Sailing vessel. MMSI: 245136000.

Date/timePositionNaut miles runAvg speedWind from/ knotsBaromVisibWave heightAir tempDewpointWater temp
2015-Jul-30 22:28N 57°43' E 010°35'0 0.2
2015-Jul-30 21:34N 57°43' E 010°36'4 4.0
2015-Jul-30 20:34N 57°45' E 010°42'7 7.1
2015-Jul-30 19:34N 57°47' E 010°29'9 8.6
2015-Jul-30 18:34N 57°49' E 010°14'8 7.1
2015-Jul-30 17:25N 57°51' E 009°59'36 3.9
2015-Jul-30 08:05N 57°33' E 008°60'3 5.6
2015-Jul-30 07:32N 57°30' E 008°56'0 0.5
2015-Jul-30 06:33N 57°31' E 008°56'  
2015-Jul-23 14:28N 58°06' E 006°29'8 8.4
2015-Jul-23 13:33N 58°11' E 006°18'7 7.1
2015-Jul-23 12:33N 58°16' E 006°09'6 6.1
2015-Jul-23 11:33N 58°21' E 006°01'3 3.2
2015-Jul-23 10:33N 58°23' E 005°56'4 4.0
2015-Jul-23 09:33N 58°25' E 005°51'1 1.4
2015-Jul-23 08:33N 58°27' E 005°49'2 2.1
2015-Jul-23 07:31N 58°29' E 005°47'2 0.1
2015-Jul-22 12:16N 58°30' E 005°46'19 6.7
2015-Jul-22 09:26N 58°47' E 005°28'6 7.3
2015-Jul-22 08:33N 58°53' E 005°31'3 0.6
2015-Jul-22 02:33N 58°56' E 005°35'6 5.5
2015-Jul-22 01:30N 58°51' E 005°30'5 5.1
2015-Jul-22 00:33N 58°53' E 005°21'8 7.6
2015-Jul-21 23:34N 58°60' E 005°15'7 7.1
2015-Jul-21 22:33N 59°06' E 005°10'7 6.8
2015-Jul-21 21:33N 59°13' E 005°07'7 6.6
2015-Jul-21 20:33N 59°19' E 005°06'6 6.2
2015-Jul-21 19:33N 59°25' E 005°10'8 7.1
2015-Jul-21 18:29N 59°33' E 005°12'7 7.0
2015-Jul-21 17:33N 59°38' E 005°19'7 7.4
2015-Jul-21 16:33N 59°44' E 005°29'5 5.0
2015-Jul-21 15:33N 59°49' E 005°33'  

Dump ship's entire track history